Time;durP1;ratioP1;P1;durP2;ratioP2;P2;SDS_P1;SDS_P2;PMS_P1;PMS_P2;Temp;Humidity;BMP_temperature;BMP_pressure;BME280_temperature;BME280_humidity;BME280_pressure;Samples;Min_cycle;Max_cycle;Signal;HPM_P1;HPM_P2
2021/06/29 00:01:23;;;;;;;9.43;8.80;;;16.90;99.90;;;;;;4985949;28;20461;-96
2021/06/29 00:03:56;;;;;;;9.10;8.40;;;16.90;99.90;;;;;;4966998;28;21043;-96
2021/06/29 00:06:22;;;;;;;10.23;9.40;;;16.90;99.90;;;;;;4963395;28;20484;-95
2021/06/29 00:08:48;;;;;;;7.67;6.90;;;16.80;99.90;;;;;;4959642;28;20511;-96
2021/06/29 00:11:16;;;;;;;8.67;8.00;;;16.80;99.90;;;;;;4960421;28;20894;-96
2021/06/29 00:13:44;;;;;;;7.67;7.07;;;16.70;99.90;;;;;;4956658;28;22909;-94
2021/06/29 00:26:46;;;;;;;9.60;8.90;;;16.60;99.90;;;;;;5531402;23;20471;-96
2021/06/29 00:29:23;;;;;;;9.03;8.33;;;16.60;99.90;;;;;;4992920;28;20480;-96
2021/06/29 00:31:51;;;;;;;9.43;8.73;;;16.70;99.90;;;;;;4969764;28;20524;-96
2021/06/29 00:34:17;;;;;;;8.80;8.17;;;16.70;99.90;;;;;;4969416;28;20466;-96
2021/06/29 00:36:43;;;;;;;7.83;7.23;;;16.70;99.90;;;;;;4978623;28;20604;-96
2021/06/29 00:39:09;;;;;;;9.13;8.43;;;16.80;99.90;;;;;;4955418;28;20198;-96
2021/06/29 00:41:35;;;;;;;9.00;8.10;;;16.80;99.90;;;;;;4962839;28;20182;-96
2021/06/29 00:44:01;;;;;;;8.10;7.57;;;16.80;99.90;;;;;;4968052;28;20608;-95
2021/06/29 00:46:26;;;;;;;7.80;7.27;;;16.90;99.90;;;;;;4957449;28;20194;-95
2021/06/29 00:49:27;;;;;;;8.30;7.60;;;17.00;99.90;;;;;;4954763;28;20201;-95
2021/06/29 00:51:53;;;;;;;8.00;7.40;;;16.90;99.90;;;;;;4967950;28;20186;-95
2021/06/29 00:54:19;;;;;;;7.43;6.80;;;17.00;99.90;;;;;;4954724;28;20446;-94
2021/06/29 00:56:45;;;;;;;7.20;6.60;;;17.00;99.90;;;;;;4954071;28;20441;-95
2021/06/29 00:59:11;;;;;;;8.27;7.57;;;17.10;99.90;;;;;;4947735;28;20956;-95
2021/06/29 01:01:37;;;;;;;9.00;8.20;;;17.00;99.90;;;;;;4964872;28;20794;-94
2021/06/29 01:04:05;;;;;;;9.53;8.83;;;16.90;99.90;;;;;;4952024;28;20545;-94
2021/06/29 01:06:30;;;;;;;8.80;8.20;;;16.90;99.90;;;;;;4952775;28;21214;-94
2021/06/29 01:08:56;;;;;;;8.73;8.03;;;16.90;99.90;;;;;;4968845;28;20449;-94
2021/06/29 01:11:23;;;;;;;9.20;8.50;;;16.90;99.90;;;;;;4949485;28;20190;-94
2021/06/29 01:13:48;;;;;;;10.17;9.27;;;16.90;99.90;;;;;;4951392;28;20183;-94
2021/06/29 01:16:24;;;;;;;11.30;10.27;;;16.90;99.90;;;;;;4952070;28;20452;-95
2021/06/29 01:18:53;;;;;;;9.77;9.00;;;16.80;99.90;;;;;;4971795;28;20186;-94
2021/06/29 01:21:20;;;;;;;11.10;10.20;;;16.90;99.90;;;;;;4954233;28;20468;-94
2021/06/29 01:23:51;;;;;;;10.13;9.33;;;16.80;99.90;;;;;;4969084;28;20851;-95
2021/06/29 01:26:28;;;;;;;9.47;8.63;;;16.90;99.90;;;;;;4970657;28;21018;-95
2021/06/29 01:29:12;;;;;;;9.10;8.17;;;16.90;99.90;;;;;;4955207;28;20507;-94
2021/06/29 01:31:46;;;;;;;10.27;9.47;;;17.00;99.90;;;;;;4967460;28;20536;-94
2021/06/29 01:34:14;;;;;;;9.77;9.03;;;17.00;99.90;;;;;;4972013;28;20485;-94
2021/06/29 01:36:43;;;;;;;8.60;7.90;;;17.00;99.90;;;;;;4955438;28;20493;-95
2021/06/29 01:39:13;;;;;;;8.93;8.17;;;17.00;99.90;;;;;;4974394;28;20186;-95
2021/06/29 01:41:39;;;;;;;9.20;8.50;;;17.00;99.90;;;;;;4974535;28;20492;-95
2021/06/29 01:44:09;;;;;;;8.70;8.10;;;16.90;99.90;;;;;;4972160;28;20517;-95
2021/06/29 01:46:38;;;;;;;6.63;6.13;;;16.90;99.90;;;;;;4957744;28;20240;-95
2021/06/29 01:49:04;;;;;;;7.13;6.53;;;17.00;99.90;;;;;;4966706;28;20500;-96
2021/06/29 01:51:30;;;;;;;7.23;6.63;;;16.90;99.90;;;;;;4968252;28;20454;-96
2021/06/29 01:53:58;;;;;;;7.87;7.17;;;16.90;99.90;;;;;;4984672;28;20514;-94
2021/06/29 01:56:34;;;;;;;7.27;6.77;;;16.90;99.90;;;;;;4984806;28;20182;-96
2021/06/29 02:09:23;;;;;;;5.07;4.67;;;16.80;99.90;;;;;;4928507;28;20836;-96
2021/06/29 02:11:49;;;;;;;4.00;3.80;;;16.80;99.90;;;;;;4921957;29;20458;-95
2021/06/29 02:14:18;;;;;;;4.10;3.80;;;16.70;99.90;;;;;;4909157;29;20206;-96
2021/06/29 02:16:46;;;;;;;4.17;3.63;;;16.70;99.90;;;;;;4961110;28;21007;-96
2021/06/29 02:19:12;;;;;;;4.83;4.53;;;16.80;99.90;;;;;;4962134;23;20502;-94
2021/06/29 02:21:38;;;;;;;5.10;4.70;;;16.90;99.90;;;;;;4958008;28;20792;-95
2021/06/29 02:24:04;;;;;;;4.90;4.60;;;16.80;99.90;;;;;;4960436;28;20198;-96
2021/06/29 02:26:29;;;;;;;5.40;4.90;;;16.80;99.90;;;;;;4976328;28;20368;-94
2021/06/29 02:28:55;;;;;;;5.53;5.10;;;16.70;99.90;;;;;;4957074;28;21023;-95
2021/06/29 02:31:21;;;;;;;4.80;4.40;;;16.70;99.90;;;;;;4973338;28;20212;-95
2021/06/29 02:33:46;;;;;;;5.13;4.73;;;16.70;99.90;;;;;;4973737;28;20190;-94
2021/06/29 02:36:15;;;;;;;5.03;4.73;;;16.70;99.90;;;;;;4957901;28;20684;-95
2021/06/29 02:38:42;;;;;;;5.83;5.40;;;16.70;99.90;;;;;;4958107;28;20420;-96
2021/06/29 02:41:07;;;;;;;5.20;4.80;;;16.60;99.90;;;;;;4959282;28;20465;-95
2021/06/29 02:43:53;;;;;;;5.60;5.20;;;16.60;99.90;;;;;;4954038;28;20473;-95
2021/06/29 02:46:22;;;;;;;5.60;5.20;;;16.60;99.90;;;;;;4957541;28;21057;-94
2021/06/29 02:48:53;;;;;;;5.30;4.90;;;16.60;99.90;;;;;;4957019;28;20521;-96
2021/06/29 02:51:19;;;;;;;5.60;5.00;;;16.60;99.90;;;;;;4954335;28;20546;-96
2021/06/29 02:53:45;;;;;;;6.40;5.90;;;16.70;99.90;;;;;;4956238;28;20856;-95
2021/06/29 02:56:37;;;;;;;7.67;6.77;;;16.70;99.90;;;;;;4954660;28;21402;-94
2021/06/29 02:59:03;;;;;;;6.90;6.30;;;16.60;99.90;;;;;;4962237;28;20206;-95
2021/06/29 03:01:29;;;;;;;7.00;6.43;;;16.50;99.90;;;;;;4973918;28;20547;-96
2021/06/29 03:06:43;;;;;;;6.63;6.00;;;16.50;99.90;;;;;;5089668;23;20250;-96
2021/06/29 03:09:12;;;;;;;6.47;5.90;;;16.50;99.90;;;;;;4970458;28;20518;-96
2021/06/29 03:11:47;;;;;;;5.93;5.53;;;16.50;99.90;;;;;;5211278;23;20568;-96
2021/06/29 03:19:52;;;;;;;5.90;5.30;;;16.60;99.90;;;;;;5105481;23;20492;-96
2021/06/29 03:22:43;;;;;;;5.90;5.30;;;16.70;99.90;;;;;;5055838;23;20508;-96
2021/06/29 03:25:09;;;;;;;5.53;5.13;;;16.80;99.90;;;;;;4990483;28;20488;-96
2021/06/29 03:27:36;;;;;;;6.80;6.20;;;16.80;99.90;;;;;;5012081;28;20838;-96
2021/06/29 03:30:06;;;;;;;6.07;5.50;;;16.90;99.90;;;;;;5011153;28;20508;-95
2021/06/29 03:32:31;;;;;;;7.50;7.00;;;16.80;99.90;;;;;;4983134;28;20467;-96
2021/06/29 03:34:57;;;;;;;7.63;6.97;;;16.70;99.90;;;;;;4984381;28;20807;-96
2021/06/29 03:37:27;;;;;;;7.87;7.17;;;16.80;99.90;;;;;;4992633;28;20706;-96
2021/06/29 03:39:54;;;;;;;6.17;5.77;;;16.80;99.90;;;;;;4971839;28;20206;-95
2021/06/29 03:42:22;;;;;;;7.40;6.20;;;16.70;99.90;;;;;;4983209;28;20495;-95
2021/06/29 03:44:48;;;;;;;7.23;6.63;;;16.60;99.90;;;;;;5036001;23;20512;-96
2021/06/29 04:13:02;;;;;;;8.03;7.23;;;16.70;99.90;;;;;;5608611;23;20489;-96
2021/06/29 04:15:30;;;;;;;7.70;7.10;;;16.70;99.90;;;;;;4999367;28;20448;-96
2021/06/29 04:20:44;;;;;;;7.67;7.07;;;16.60;99.90;;;;;;4978568;28;20478;-96
2021/06/29 04:23:10;;;;;;;5.60;5.20;;;16.60;99.90;;;;;;4989981;28;20472;-94
2021/06/29 04:25:35;;;;;;;6.13;5.40;;;16.60;99.90;;;;;;4965708;28;20485;-90
2021/06/29 04:28:01;;;;;;;5.63;5.13;;;16.60;99.90;;;;;;4957824;28;20654;-91
2021/06/29 04:30:27;;;;;;;5.50;5.10;;;16.60;99.90;;;;;;4958550;28;20217;-90
2021/06/29 04:32:53;;;;;;;5.00;4.60;;;16.70;99.90;;;;;;4954084;28;22404;-91
2021/06/29 04:35:19;;;;;;;6.20;5.80;;;16.80;99.90;;;;;;4955287;28;20458;-92
2021/06/29 04:37:45;;;;;;;4.40;4.10;;;16.90;99.90;;;;;;4957050;28;20200;-91
2021/06/29 04:40:12;;;;;;;5.00;4.70;;;16.90;99.90;;;;;;4956159;28;20201;-92
2021/06/29 04:42:38;;;;;;;3.60;3.40;;;17.00;99.90;;;;;;4950415;28;20812;-93
2021/06/29 04:45:04;;;;;;;3.70;3.50;;;17.00;99.90;;;;;;4954336;28;20492;-93
2021/06/29 04:47:36;;;;;;;3.50;3.20;;;16.90;99.90;;;;;;4955612;28;20212;-92
2021/06/29 04:52:37;;;;;;;4.00;3.60;;;16.90;99.90;;;;;;4955042;28;20482;-89
2021/06/29 04:55:04;;;;;;;4.43;4.10;;;16.80;99.90;;;;;;4955392;28;20449;-92
2021/06/29 04:57:29;;;;;;;4.30;4.00;;;16.70;99.90;;;;;;4956709;28;20497;-91
2021/06/29 04:59:55;;;;;;;4.67;4.37;;;16.60;99.90;;;;;;4955264;28;20442;-94
2021/06/29 05:02:21;;;;;;;4.50;4.20;;;16.60;99.90;;;;;;4953356;28;20257;-89
2021/06/29 05:04:46;;;;;;;5.87;4.00;;;16.70;99.90;;;;;;4968295;28;21402;-90
2021/06/29 05:07:12;;;;;;;4.40;4.10;;;16.70;99.90;;;;;;4953514;28;20202;-92
2021/06/29 05:09:38;;;;;;;4.70;4.07;;;16.70;99.90;;;;;;4957949;28;20556;-90
2021/06/29 05:12:04;;;;;;;4.53;4.23;;;16.70;99.90;;;;;;4958587;28;20182;-92
2021/06/29 05:14:29;;;;;;;5.20;4.80;;;16.70;99.90;;;;;;4957022;28;20187;-89
2021/06/29 05:16:55;;;;;;;6.00;5.50;;;16.70;99.90;;;;;;4956246;28;20477;-89
2021/06/29 05:19:21;;;;;;;5.13;4.63;;;16.70;99.90;;;;;;4961073;28;20711;-88
2021/06/29 05:21:46;;;;;;;5.83;5.27;;;16.70;99.90;;;;;;4956139;28;20206;-88
2021/06/29 05:24:12;;;;;;;6.03;5.50;;;16.80;99.90;;;;;;4956803;28;20322;-88
2021/06/29 05:26:38;;;;;;;6.30;5.80;;;16.80;99.90;;;;;;4943723;28;20201;-94
2021/06/29 05:29:05;;;;;;;5.93;5.40;;;16.80;99.90;;;;;;4956750;28;20206;-85
2021/06/29 05:31:31;;;;;;;5.83;5.43;;;16.80;99.90;;;;;;4959859;28;20590;-94
2021/06/29 05:33:56;;;;;;;5.97;5.57;;;16.80;99.90;;;;;;4961621;28;20441;-95
2021/06/29 05:36:22;;;;;;;5.60;5.20;;;16.90;99.90;;;;;;4961644;28;20198;-95
2021/06/29 05:38:48;;;;;;;5.77;5.27;;;16.80;99.90;;;;;;4958243;28;20283;-91
2021/06/29 05:41:13;;;;;;;5.97;5.57;;;16.90;99.90;;;;;;4961097;28;21082;-93
2021/06/29 05:43:39;;;;;;;6.00;5.60;;;16.80;99.90;;;;;;4960361;28;20225;-92
2021/06/29 05:46:05;;;;;;;6.27;5.77;;;16.80;99.90;;;;;;4956881;28;20234;-91
2021/06/29 05:48:33;;;;;;;6.53;5.93;;;16.90;99.90;;;;;;4975082;28;20569;-93
2021/06/29 05:51:01;;;;;;;7.17;6.47;;;16.90;99.90;;;;;;4955720;28;20260;-91
2021/06/29 05:53:29;;;;;;;6.23;5.67;;;16.90;99.90;;;;;;4957385;28;20452;-94
2021/06/29 05:55:57;;;;;;;11.33;6.57;;;16.90;99.90;;;;;;4954160;28;20453;-86
2021/06/29 05:58:23;;;;;;;6.90;6.07;;;17.00;99.90;;;;;;4953376;28;20450;-85
2021/06/29 06:00:48;;;;;;;6.60;6.10;;;17.20;99.90;;;;;;4969087;28;20501;-85
2021/06/29 06:03:15;;;;;;;7.50;7.00;;;17.30;99.90;;;;;;4967794;28;20512;-84
2021/06/29 06:05:41;;;;;;;6.50;6.00;;;17.40;99.90;;;;;;4954956;28;20229;-88
2021/06/29 06:08:10;;;;;;;6.73;6.00;;;17.60;99.90;;;;;;4955856;28;20441;-87
2021/06/29 06:10:36;;;;;;;6.53;6.00;;;17.70;99.90;;;;;;4953488;28;20548;-88
2021/06/29 06:13:02;;;;;;;6.60;6.10;;;17.80;99.90;;;;;;4955709;28;20556;-88
2021/06/29 06:15:27;;;;;;;6.03;5.53;;;17.90;99.90;;;;;;4955421;28;20196;-90
2021/06/29 06:17:53;;;;;;;6.73;6.13;;;17.90;99.90;;;;;;4960280;28;20319;-89
2021/06/29 06:20:19;;;;;;;6.07;5.67;;;18.00;99.90;;;;;;4955104;28;20229;-89
2021/06/29 06:22:45;;;;;;;6.10;5.60;;;18.10;99.90;;;;;;4970172;28;20191;-88
2021/06/29 06:25:11;;;;;;;6.40;5.90;;;18.20;99.90;;;;;;4975567;28;20225;-90
2021/06/29 06:27:37;;;;;;;6.30;5.90;;;18.30;99.90;;;;;;4971043;28;20449;-89
2021/06/29 06:30:05;;;;;;;6.30;5.80;;;18.70;99.90;;;;;;4956919;28;20978;-94
2021/06/29 06:32:30;;;;;;;5.93;5.07;;;19.00;99.90;;;;;;4965976;28;20199;-95
2021/06/29 06:34:56;;;;;;;4.60;4.20;;;19.20;99.90;;;;;;4964339;28;20810;-94
2021/06/29 06:37:22;;;;;;;4.60;4.20;;;19.30;99.90;;;;;;4954705;28;20209;-91
2021/06/29 06:39:48;;;;;;;4.37;4.07;;;19.30;99.90;;;;;;4955908;28;20525;-89
2021/06/29 06:42:14;;;;;;;5.03;4.60;;;19.20;99.90;;;;;;4950126;28;20198;-88
2021/06/29 06:44:40;;;;;;;5.37;4.80;;;19.10;99.90;;;;;;4953759;28;20309;-92
2021/06/29 06:47:05;;;;;;;5.00;4.60;;;18.80;99.90;;;;;;4953330;28;20532;-90
2021/06/29 06:49:31;;;;;;;4.30;4.00;;;18.60;99.90;;;;;;4951833;28;21343;-89
2021/06/29 06:51:57;;;;;;;4.50;4.17;;;18.50;99.90;;;;;;4957274;28;20245;-92
2021/06/29 06:54:22;;;;;;;5.07;4.67;;;18.50;99.90;;;;;;4953396;28;20186;-92
2021/06/29 06:56:50;;;;;;;4.73;4.33;;;18.30;99.90;;;;;;4957957;28;20277;-91
2021/06/29 06:59:40;;;;;;;5.97;4.30;;;18.20;99.90;;;;;;4968947;28;20187;-96
2021/06/29 07:02:21;;;;;;;4.43;4.13;;;18.50;99.90;;;;;;4968888;28;20450;-96
2021/06/29 07:04:47;;;;;;;4.37;4.07;;;18.40;99.90;;;;;;4958348;28;20504;-96
2021/06/29 07:07:38;;;;;;;3.73;3.53;;;18.50;99.90;;;;;;4961273;28;20811;-96
2021/06/29 07:10:14;;;;;;;5.50;4.40;;;18.80;99.90;;;;;;4948366;28;20301;-96
2021/06/29 07:43:43;;;;;;;3.93;2.80;;;19.90;99.90;;;;;;4955800;28;20496;-92
2021/06/29 07:46:32;;;;;;;3.53;3.20;;;19.80;99.90;;;;;;4958155;28;20485;-91
2021/06/29 07:49:02;;;;;;;2.50;2.40;;;20.00;99.90;;;;;;4958882;28;21134;-93
2021/06/29 07:51:32;;;;;;;2.43;2.27;;;20.10;99.90;;;;;;4952233;28;20504;-92
2021/06/29 07:53:59;;;;;;;3.30;2.80;;;19.90;99.90;;;;;;4957922;28;20485;-95
2021/06/29 07:56:25;;;;;;;2.20;2.10;;;19.90;99.90;;;;;;4958949;28;20457;-93
2021/06/29 07:58:51;;;;;;;2.90;2.67;;;20.00;99.90;;;;;;4956762;28;22110;-91
2021/06/29 08:01:20;;;;;;;2.40;2.30;;;20.00;99.90;;;;;;4953719;28;20195;-92
2021/06/29 08:03:48;;;;;;;2.60;2.50;;;20.10;99.90;;;;;;4957055;28;20827;-91
2021/06/29 08:06:20;;;;;;;2.90;2.70;;;20.30;99.90;;;;;;4955980;28;20485;-92
2021/06/29 08:08:45;;;;;;;2.00;1.90;;;20.50;99.90;;;;;;4955653;28;20546;-91
2021/06/29 08:11:14;;;;;;;3.00;1.87;;;20.60;99.90;;;;;;4951983;28;20500;-90
2021/06/29 08:13:40;;;;;;;1.87;1.77;;;20.50;99.90;;;;;;4969910;28;20645;-91
2021/06/29 08:16:09;;;;;;;1.73;1.63;;;20.50;99.90;;;;;;4949769;28;20812;-89
2021/06/29 08:18:37;;;;;;;1.80;1.70;;;20.70;99.90;;;;;;4954889;28;20485;-89
2021/06/29 08:21:09;;;;;;;3.10;2.00;;;20.50;99.90;;;;;;4956689;28;20537;-90
2021/06/29 08:23:37;;;;;;;1.60;1.50;;;20.50;99.90;;;;;;4955983;28;20994;-88
2021/06/29 08:26:03;;;;;;;1.80;1.70;;;20.90;99.90;;;;;;4956565;28;20512;-86
2021/06/29 08:28:33;;;;;;;2.90;2.07;;;21.10;99.90;;;;;;4953825;28;20452;-87
2021/06/29 08:30:59;;;;;;;2.10;2.00;;;21.10;99.90;;;;;;4951998;28;20452;-87
2021/06/29 08:33:25;;;;;;;2.00;1.90;;;21.20;99.90;;;;;;4956017;28;20509;-89
2021/06/29 08:35:51;;;;;;;2.17;1.97;;;21.30;99.90;;;;;;4954090;28;20474;-88
2021/06/29 08:38:18;;;;;;;1.87;1.77;;;21.30;99.90;;;;;;4953981;28;20190;-88
2021/06/29 08:40:52;;;;;;;2.00;1.90;;;21.40;99.90;;;;;;4950383;28;20441;-88
2021/06/29 08:43:18;;;;;;;1.87;1.77;;;21.50;99.90;;;;;;4956556;28;20506;-89
2021/06/29 08:45:47;;;;;;;1.77;1.67;;;21.70;99.90;;;;;;4970438;28;20488;-87
2021/06/29 08:48:13;;;;;;;2.00;1.90;;;21.90;99.90;;;;;;4973411;28;20540;-89
2021/06/29 08:50:42;;;;;;;1.97;1.87;;;21.40;99.90;;;;;;4961119;28;21034;-87
2021/06/29 08:53:10;;;;;;;2.10;1.90;;;20.90;99.90;;;;;;4957164;28;20190;-89
2021/06/29 08:55:49;;;;;;;2.00;1.90;;;21.10;99.90;;;;;;4972219;28;20466;-88
2021/06/29 08:58:19;;;;;;;2.40;2.20;;;21.40;99.90;;;;;;4960588;28;20521;-89
2021/06/29 09:00:46;;;;;;;2.30;2.10;;;21.30;99.90;;;;;;4975511;28;21020;-88
2021/06/29 09:03:12;;;;;;;2.07;1.87;;;21.20;99.90;;;;;;4973710;28;20531;-88
2021/06/29 09:05:46;;;;;;;3.10;2.77;;;21.20;99.90;;;;;;4957281;28;20485;-88
2021/06/29 09:08:17;;;;;;;2.20;2.00;;;21.60;99.90;;;;;;4956623;28;20623;-89
2021/06/29 09:11:03;;;;;;;2.03;1.93;;;22.00;99.90;;;;;;4957349;28;21141;-89
2021/06/29 09:13:30;;;;;;;2.40;2.00;;;21.80;99.90;;;;;;4973566;28;20500;-89
2021/06/29 09:15:56;;;;;;;2.10;1.87;;;21.80;99.90;;;;;;4958111;28;20512;-87
2021/06/29 09:18:31;;;;;;;2.00;1.90;;;22.20;99.90;;;;;;4975563;28;20769;-87
2021/06/29 09:21:00;;;;;;;1.97;1.83;;;22.40;99.90;;;;;;4958879;28;20437;-88
2021/06/29 09:23:39;;;;;;;2.10;1.90;;;22.20;99.90;;;;;;4956337;28;20842;-89
2021/06/29 09:26:12;;;;;;;1.77;1.67;;;22.30;99.90;;;;;;4939650;28;20489;-89
2021/06/29 09:28:45;;;;;;;2.10;1.90;;;22.50;99.90;;;;;;4972054;28;20490;-89
2021/06/29 09:31:22;;;;;;;2.10;2.00;;;22.10;99.90;;;;;;4969823;28;20472;-89
2021/06/29 09:33:51;;;;;;;1.90;1.80;;;22.10;99.90;;;;;;4967393;28;20849;-87
2021/06/29 09:36:38;;;;;;;3.53;1.83;;;22.30;99.90;;;;;;4957574;28;20480;-85
2021/06/29 09:39:13;;;;;;;2.60;2.40;;;22.40;99.90;;;;;;4969455;28;20453;-88
2021/06/29 09:41:41;;;;;;;1.90;1.80;;;22.00;99.90;;;;;;4966182;28;20875;-88
2021/06/29 09:44:11;;;;;;;3.20;1.97;;;22.00;99.90;;;;;;4957984;28;20931;-88
2021/06/29 09:46:54;;;;;;;2.33;2.13;;;22.10;99.90;;;;;;4953401;28;20583;-90
2021/06/29 09:49:22;;;;;;;3.30;2.10;;;22.70;99.90;;;;;;4954735;28;20460;-89
2021/06/29 09:51:53;;;;;;;2.30;2.10;;;23.20;99.90;;;;;;4957846;28;20988;-89
2021/06/29 09:54:23;;;;;;;2.40;2.20;;;23.20;99.90;;;;;;4972621;28;20878;-90
2021/06/29 09:57:00;;;;;;;2.10;2.00;;;23.30;99.90;;;;;;4952529;28;20450;-89
2021/06/29 09:59:25;;;;;;;1.90;1.80;;;23.30;99.90;;;;;;4955146;28;20452;-90
2021/06/29 10:02:10;;;;;;;3.53;2.23;;;23.10;99.90;;;;;;4970422;28;21026;-89
2021/06/29 10:04:36;;;;;;;2.00;1.90;;;23.00;99.90;;;;;;4957707;28;20199;-89
2021/06/29 10:07:13;;;;;;;2.37;2.17;;;22.90;99.90;;;;;;4953911;28;20457;-88
2021/06/29 10:09:39;;;;;;;1.90;1.80;;;23.10;99.90;;;;;;4976137;28;20182;-88
2021/06/29 10:12:04;;;;;;;2.30;2.20;;;23.30;99.90;;;;;;4970280;28;21029;-88
2021/06/29 10:14:31;;;;;;;1.90;1.80;;;23.40;99.90;;;;;;4955944;28;20198;-90
2021/06/29 10:16:56;;;;;;;2.13;1.93;;;23.40;99.90;;;;;;4956512;28;20221;-90
2021/06/29 10:22:00;;;;;;;2.53;2.33;;;24.00;99.90;;;;;;4957251;28;20197;-89
2021/06/29 10:24:32;;;;;;;3.30;2.70;;;24.40;99.90;;;;;;4974057;28;20460;-88
2021/06/29 10:26:59;;;;;;;2.33;2.03;;;24.60;99.90;;;;;;4954672;28;20477;-88
2021/06/29 10:29:27;;;;;;;2.30;2.20;;;24.50;99.90;;;;;;4971802;28;20938;-88
2021/06/29 10:31:56;;;;;;;3.40;1.87;;;24.60;99.90;;;;;;4957963;28;20480;-88
2021/06/29 10:34:24;;;;;;;1.90;1.80;;;24.90;99.90;;;;;;4973182;28;20452;-88
2021/06/29 10:36:52;;;;;;;2.00;1.90;;;25.20;99.90;;;;;;4973939;28;21050;-90
2021/06/29 10:39:21;;;;;;;2.13;2.03;;;25.10;99.90;;;;;;4956363;28;20931;-92
2021/06/29 10:41:51;;;;;;;1.77;1.67;;;25.00;99.90;;;;;;4954852;28;20827;-90
2021/06/29 10:44:19;;;;;;;1.80;1.70;;;25.30;99.40;;;;;;4976371;28;20537;-89
2021/06/29 10:46:50;;;;;;;2.20;2.10;;;25.20;99.90;;;;;;4972859;28;20572;-91
2021/06/29 10:49:35;;;;;;;2.17;1.97;;;25.40;99.90;;;;;;4957044;28;20445;-93
2021/06/29 10:52:08;;;;;;;2.87;2.60;;;25.50;99.90;;;;;;4972494;28;20453;-91
2021/06/29 10:54:43;;;;;;;2.40;2.20;;;25.70;99.90;;;;;;4954265;28;20536;-92
2021/06/29 10:57:11;;;;;;;1.90;1.80;;;25.70;99.90;;;;;;4957893;28;20575;-92
2021/06/29 10:59:58;;;;;;;2.30;2.20;;;24.60;99.80;;;;;;4951890;28;20979;-90
2021/06/29 11:02:39;;;;;;;2.10;1.90;;;24.40;99.90;;;;;;4953685;28;20450;-90
2021/06/29 11:05:08;;;;;;;2.10;2.00;;;24.80;99.90;;;;;;4954786;28;20485;-92
2021/06/29 11:07:46;;;;;;;2.10;2.00;;;25.10;99.90;;;;;;4956368;28;21021;-89
2021/06/29 11:10:26;;;;;;;1.87;1.77;;;25.20;99.80;;;;;;4969075;28;20455;-89
2021/06/29 11:12:54;;;;;;;3.20;2.10;;;25.60;98.50;;;;;;4954698;28;20935;-91
2021/06/29 11:15:38;;;;;;;2.80;2.57;;;25.90;99.90;;;;;;4953591;28;20503;-92
2021/06/29 11:18:04;;;;;;;2.37;2.03;;;26.10;99.90;;;;;;4956040;28;20447;-92
2021/06/29 11:20:50;;;;;;;1.80;1.70;;;25.90;99.90;;;;;;4955198;28;20454;-91
2021/06/29 11:23:55;;;;;;;2.20;2.10;;;26.20;99.50;;;;;;4968006;28;20213;-91
2021/06/29 11:26:23;;;;;;;2.10;2.00;;;26.80;98.90;;;;;;4948993;28;20449;-91
2021/06/29 11:29:05;;;;;;;1.97;1.80;;;27.30;99.30;;;;;;4956467;28;20488;-91
2021/06/29 11:31:32;;;;;;;2.70;2.50;;;27.00;98.00;;;;;;4967259;28;20571;-92
2021/06/29 11:34:13;;;;;;;2.20;2.10;;;27.30;96.70;;;;;;4954765;28;20461;-88
2021/06/29 11:36:55;;;;;;;2.10;2.00;;;27.90;95.30;;;;;;4957120;28;20702;-88
2021/06/29 11:39:33;;;;;;;2.40;2.30;;;27.70;96.20;;;;;;4965508;28;20860;-90
2021/06/29 11:42:12;;;;;;;2.77;2.57;;;27.40;96.20;;;;;;4953393;28;20993;-88
2021/06/29 11:44:47;;;;;;;2.30;2.10;;;27.50;96.60;;;;;;4953755;28;20457;-89
2021/06/29 11:47:15;;;;;;;2.07;1.97;;;28.00;96.00;;;;;;4954601;28;20912;-91
2021/06/29 11:49:52;;;;;;;3.13;1.90;;;28.30;93.50;;;;;;4964830;28;20446;-90
2021/06/29 11:52:35;;;;;;;2.43;2.10;;;29.00;95.40;;;;;;4951831;28;20449;-91
2021/06/29 11:55:17;;;;;;;2.27;1.77;;;29.20;95.40;;;;;;4956863;28;20480;-89
2021/06/29 11:58:01;;;;;;;2.27;2.17;;;29.40;94.50;;;;;;4953693;28;21313;-92
2021/06/29 12:00:30;;;;;;;3.13;1.80;;;29.00;94.50;;;;;;4968273;28;20556;-89
2021/06/29 12:03:03;;;;;;;2.00;1.87;;;29.40;94.70;;;;;;4972500;28;20446;-93
2021/06/29 12:05:34;;;;;;;2.50;2.30;;;28.20;92.90;;;;;;4954382;28;20485;-92
2021/06/29 12:08:06;;;;;;;2.57;2.03;;;26.40;95.50;;;;;;4953947;28;20446;-89
2021/06/29 12:10:41;;;;;;;1.93;1.83;;;25.60;96.30;;;;;;4955341;28;20536;-89
2021/06/29 12:13:09;;;;;;;2.83;1.97;;;25.40;97.60;;;;;;4971480;28;20536;-89
2021/06/29 12:15:42;;;;;;;2.10;2.00;;;25.30;96.60;;;;;;4970144;28;20564;-92
2021/06/29 12:18:10;;;;;;;2.50;2.30;;;25.80;97.40;;;;;;4975653;28;21078;-95
2021/06/29 12:20:45;;;;;;;2.63;2.43;;;26.50;97.30;;;;;;4948603;28;20439;-91
2021/06/29 12:23:13;;;;;;;2.20;2.10;;;26.40;96.50;;;;;;4968060;28;20496;-93
2021/06/29 12:26:05;;;;;;;1.93;1.83;;;25.50;96.40;;;;;;4953288;28;20444;-94
2021/06/29 12:28:39;;;;;;;2.27;2.17;;;25.80;96.20;;;;;;4951354;28;20449;-94
2021/06/29 12:31:23;;;;;;;2.20;2.07;;;26.20;96.40;;;;;;4951286;28;20495;-96
2021/06/29 12:33:50;;;;;;;2.30;2.20;;;26.10;96.30;;;;;;4952509;28;20538;-89
2021/06/29 12:36:23;;;;;;;2.67;2.20;;;25.50;97.30;;;;;;4955227;28;22297;-94
2021/06/29 12:38:57;;;;;;;2.10;1.90;;;25.60;97.60;;;;;;4979473;28;20454;-91
2021/06/29 12:41:31;;;;;;;2.57;2.37;;;25.20;97.80;;;;;;4967768;28;20919;-93
2021/06/29 12:44:10;;;;;;;2.30;2.10;;;24.70;97.60;;;;;;4946498;28;20473;-93
2021/06/29 12:46:44;;;;;;;3.00;2.00;;;24.40;98.50;;;;;;4960447;28;20563;-93
2021/06/29 12:49:14;;;;;;;2.43;2.23;;;24.00;98.40;;;;;;4948823;28;21395;-95
2021/06/29 12:51:48;;;;;;;2.20;2.00;;;23.80;99.20;;;;;;4947266;28;20492;-91
2021/06/29 12:54:16;;;;;;;2.20;2.00;;;23.50;98.80;;;;;;4970727;28;20489;-92
2021/06/29 12:56:53;;;;;;;1.87;1.77;;;23.40;99.50;;;;;;4944703;28;20510;-94
2021/06/29 12:59:29;;;;;;;3.53;1.50;;;23.40;99.50;;;;;;4941972;28;20754;-87
2021/06/29 13:02:03;;;;;;;2.20;0.90;;;23.00;97.20;;;;;;4948181;28;20468;-88
2021/06/29 13:04:41;;;;;;;0.60;0.60;;;21.20;96.10;;;;;;4942786;28;20478;-90
2021/06/29 13:07:07;;;;;;;0.50;0.50;;;20.10;98.40;;;;;;4955465;28;20675;-90
2021/06/29 13:09:42;;;;;;;1.93;1.00;;;19.00;99.90;;;;;;4945506;28;20832;-91
2021/06/29 13:12:13;;;;;;;3.30;1.10;;;17.60;99.90;;;;;;4969341;28;20243;-95
2021/06/29 13:14:39;;;;;;;1.77;0.80;;;16.30;99.90;;;;;;4949678;28;20445;-92
2021/06/29 13:17:13;;;;;;;4.13;1.50;;;15.50;99.90;;;;;;4946647;28;20454;-90
2021/06/29 13:20:05;;;;;;;2.40;1.57;;;15.10;99.90;;;;;;4942063;28;20445;-92
2021/06/29 13:22:47;;;;;;;1.40;1.20;;;14.90;99.90;;;;;;4958897;28;20465;-92
2021/06/29 13:25:41;;;;;;;1.37;1.00;;;14.80;99.90;;;;;;4951199;28;20449;-96
2021/06/29 13:28:18;;;;;;;1.90;1.17;;;14.90;99.90;;;;;;4972893;28;20450;-94
2021/06/29 13:30:49;;;;;;;2.17;1.20;;;14.90;99.90;;;;;;4987275;28;20487;-91
2021/06/29 13:33:15;;;;;;;1.63;0.83;;;14.90;99.90;;;;;;4968026;28;20487;-94
2021/06/29 13:35:42;;;;;;;0.90;0.90;;;14.80;99.90;;;;;;4964566;28;20883;-94
2021/06/29 13:38:14;;;;;;;1.10;1.00;;;14.80;99.90;;;;;;4984166;28;20805;-95
2021/06/29 13:40:47;;;;;;;1.50;1.03;;;14.90;99.90;;;;;;4962153;28;20446;-96
2021/06/29 13:43:17;;;;;;;2.10;1.20;;;14.90;99.90;;;;;;4955522;28;20461;-93
2021/06/29 13:45:54;;;;;;;1.33;1.23;;;15.00;99.90;;;;;;5264346;22;20500;-94
2021/06/29 13:48:38;;;;;;;3.60;1.27;;;15.10;99.90;;;;;;4959621;28;20446;-96
2021/06/29 13:53:45;;;;;;;1.80;0.90;;;15.00;99.90;;;;;;5136056;23;21027;-96
2021/06/29 14:01:25;;;;;;;1.37;0.80;;;14.90;99.90;;;;;;4963703;28;20877;-94
2021/06/29 14:04:05;;;;;;;0.83;0.60;;;14.80;99.90;;;;;;4961258;28;20457;-95
2021/06/29 14:06:37;;;;;;;0.87;0.70;;;14.80;99.90;;;;;;4983417;28;20465;-97
2021/06/29 14:09:11;;;;;;;1.10;1.00;;;14.70;99.90;;;;;;4958654;28;20870;-93
2021/06/29 14:11:39;;;;;;;0.90;0.70;;;14.60;99.90;;;;;;4953527;28;20456;-92
2021/06/29 14:14:16;;;;;;;4.27;0.90;;;14.50;99.90;;;;;;4979236;28;20811;-94
2021/06/29 14:16:43;;;;;;;1.00;0.90;;;14.60;99.90;;;;;;4975878;28;20445;-96
2021/06/29 14:19:08;;;;;;;1.97;1.37;;;14.50;99.90;;;;;;4961106;28;21922;-93
2021/06/29 14:21:38;;;;;;;1.23;0.93;;;14.50;99.90;;;;;;4969723;28;20453;-95
2021/06/29 14:24:08;;;;;;;1.50;1.00;;;14.50;99.90;;;;;;4951408;28;20194;-94
2021/06/29 14:26:37;;;;;;;1.77;1.00;;;14.50;99.90;;;;;;4965906;28;20984;-91
2021/06/29 14:29:05;;;;;;;2.40;1.40;;;14.40;99.90;;;;;;4961707;28;20454;-93
2021/06/29 14:31:45;;;;;;;1.40;1.30;;;14.40;99.90;;;;;;4946281;28;20458;-91
2021/06/29 14:34:11;;;;;;;4.13;0.63;;;14.40;99.90;;;;;;4948262;28;20198;-87
2021/06/29 14:36:38;;;;;;;1.40;1.00;;;14.40;99.90;;;;;;4947946;28;20825;-92
2021/06/29 14:39:05;;;;;;;1.30;1.00;;;14.40;99.90;;;;;;4949424;28;20616;-92
2021/06/29 14:41:30;;;;;;;0.73;0.70;;;14.50;99.90;;;;;;4954734;28;20457;-94
2021/06/29 14:43:56;;;;;;;2.10;1.00;;;14.60;99.90;;;;;;4948258;28;21219;-92